createdAt,value
2022-11-22T00:03:27.535Z,96177.38
2022-11-22T00:08:19.398Z,96172.78
2022-11-22T00:13:11.089Z,96176.28
2022-11-22T00:18:02.843Z,96178.16
2022-11-22T00:22:57.300Z,96184.63
2022-11-22T00:27:49.123Z,96183.28
2022-11-22T00:32:40.713Z,96185.44
2022-11-22T00:37:32.563Z,96176.56
2022-11-22T00:42:24.284Z,96186.25
2022-11-22T00:47:15.999Z,96180.59
2022-11-22T00:52:07.619Z,96188.16
2022-11-22T00:56:59.302Z,96183.31
2022-11-22T01:01:51.052Z,96195.69
2022-11-22T01:06:42.766Z,96185.75
2022-11-22T01:11:34.585Z,96182.25
2022-11-22T01:16:26.235Z,96180.94
2022-11-22T01:21:17.998Z,96184.44
2022-11-22T01:26:09.905Z,96174.75
2022-11-22T01:31:01.987Z,96172.59
2022-11-22T01:35:54.279Z,96175.56
2022-11-22T01:40:46.127Z,96174.22
2022-11-22T01:45:42.451Z,96175.31
2022-11-22T01:50:38.089Z,96179.88
2022-11-22T01:55:30.477Z,96178.00
2022-11-22T02:00:22.141Z,96182.56
2022-11-22T02:05:18.438Z,96174.25
2022-11-22T02:10:10.639Z,96172.38
2022-11-22T02:15:03.962Z,96167.53
2022-11-22T02:19:57.432Z,96178.00
2022-11-22T02:25:29.558Z,96184.47
2022-11-22T02:30:21.648Z,96180.44
2022-11-22T02:35:25.248Z,96180.16
2022-11-22T02:40:17.904Z,96174.00
2022-11-22T02:45:10.069Z,96171.06
2022-11-22T02:50:01.964Z,96183.16
2022-11-22T02:54:53.589Z,96186.09
2022-11-22T02:59:45.265Z,96187.16
2022-11-22T03:04:37.014Z,96191.75
2022-11-22T03:09:29.443Z,96196.59
2022-11-22T03:14:21.855Z,96194.69
2022-11-22T03:19:14.187Z,96183.94
2022-11-22T03:24:06.923Z,96180.75
2022-11-22T03:28:58.888Z,96179.66
2022-11-22T03:33:50.872Z,96183.69
2022-11-22T03:38:42.666Z,96185.03
2022-11-22T03:43:34.377Z,96175.63
2022-11-22T03:48:26.066Z,96180.47
2022-11-22T03:53:17.619Z,96190.13
2022-11-22T03:58:09.727Z,96183.69
2022-11-22T04:03:01.620Z,96197.63
2022-11-22T04:07:56.203Z,96181.25
2022-11-22T04:12:47.845Z,96181.78
2022-11-22T04:17:41.902Z,96185.28
2022-11-22T04:22:33.584Z,96184.19
2022-11-22T04:27:25.387Z,96185.00
2022-11-22T04:32:35.681Z,96191.44
2022-11-22T04:37:27.402Z,96202.19
2022-11-22T04:42:37.726Z,96202.47
2022-11-22T04:47:50.559Z,96205.97
2022-11-22T04:52:54.878Z,96207.31
2022-11-22T04:57:46.526Z,96210.50
2022-11-22T05:02:47.596Z,96208.38
2022-11-22T05:07:39.307Z,96212.69
2022-11-22T05:12:31.058Z,96217.25
2022-11-22T05:17:22.650Z,96210.50
2022-11-22T05:22:14.325Z,96213.22
2022-11-22T05:27:06.012Z,96216.72
2022-11-22T05:31:57.600Z,96225.06
2022-11-22T05:36:49.175Z,96217.25
2022-11-22T05:41:55.846Z,96218.84
2022-11-22T05:46:47.559Z,96236.31
2022-11-22T05:51:39.227Z,96236.06
2022-11-22T05:56:30.919Z,96240.63
2022-11-22T06:01:24.454Z,96245.75
2022-11-22T06:06:16.972Z,96261.31
2022-11-22T06:11:13.216Z,96246.00
2022-11-22T06:16:06.548Z,96253.78
2022-11-22T06:21:00.300Z,96261.56
2022-11-22T06:26:00.050Z,96257.81
2022-11-22T06:30:51.738Z,96264.25
2022-11-22T06:35:43.529Z,96261.56
2022-11-22T06:40:35.148Z,96282.00
2022-11-22T06:45:26.848Z,96271.25
2022-11-22T06:50:21.762Z,96282.25
2022-11-22T06:55:42.326Z,96286.56
2022-11-22T07:00:25.439Z,96294.63
2022-11-22T07:05:25.561Z,96301.63
2022-11-22T07:10:17.652Z,96306.72
2022-11-22T07:15:09.952Z,96313.69
2022-11-22T07:20:01.712Z,96310.47
2022-11-22T07:24:53.452Z,96315.84
2022-11-22T07:29:45.122Z,96318.28
2022-11-22T07:34:36.868Z,96324.47
2022-11-22T07:39:29.208Z,96329.28
2022-11-22T07:44:22.152Z,96338.19
2022-11-22T07:49:13.872Z,96342.75
2022-11-22T07:54:05.588Z,96337.66
2022-11-22T07:58:57.259Z,96341.66
2022-11-22T08:03:48.955Z,96344.06
2022-11-22T08:08:40.862Z,96358.06
2022-11-22T08:13:33.454Z,96357.78
2022-11-22T08:18:25.219Z,96355.09
2022-11-22T08:23:16.868Z,96357.25
2022-11-22T08:28:08.509Z,96357.25
2022-11-22T08:33:00.231Z,96356.72
2022-11-22T08:37:55.838Z,96365.88
2022-11-22T08:42:47.546Z,96372.56
2022-11-22T08:47:39.211Z,96379.84
2022-11-22T08:52:30.891Z,96388.19
2022-11-22T08:57:23.096Z,96384.69
2022-11-22T09:02:14.833Z,96389.28
2022-11-22T09:12:19.288Z,96395.47
2022-11-22T09:17:17.310Z,96400.56
2022-11-22T09:22:09.617Z,96403.00
2022-11-22T09:27:01.423Z,96397.31
2022-11-22T09:31:53.327Z,96398.41
2022-11-22T09:36:44.997Z,96405.66
2022-11-22T09:42:07.228Z,96401.63
2022-11-22T09:47:36.275Z,96404.81
2022-11-22T09:52:38.666Z,96408.81
2022-11-22T09:57:44.790Z,96414.69
2022-11-22T10:02:59.981Z,96425.97
2022-11-22T10:08:08.363Z,96419.47
2022-11-22T10:13:12.060Z,96427.53
2022-11-22T10:18:15.087Z,96431.50
2022-11-22T10:23:22.129Z,96418.41
2022-11-22T10:28:34.100Z,96431.34
2022-11-22T10:33:34.724Z,96441.00
2022-11-22T10:39:03.674Z,96433.97
2022-11-22T10:44:16.930Z,96448.53
2022-11-22T10:49:14.481Z,96466.94
2022-11-22T10:54:22.972Z,96459.53
2022-11-22T10:59:29.379Z,96471.94
2022-11-22T11:04:23.758Z,96472.88
2022-11-22T11:14:59.744Z,96476.13
2022-11-22T11:19:54.106Z,96460.63
2022-11-22T11:24:45.789Z,96464.88
2022-11-22T11:29:42.342Z,96462.59
2022-11-22T11:34:34.604Z,96468.97
2022-11-22T11:39:34.442Z,96479.84
2022-11-22T11:44:37.198Z,96476.13
2022-11-22T11:49:31.500Z,96477.00
2022-11-22T11:54:33.281Z,96484.00
2022-11-22T11:59:40.098Z,96493.00
2022-11-22T12:04:37.161Z,96513.66
2022-11-22T12:09:32.306Z,96528.63
2022-11-22T12:14:42.702Z,96524.94
2022-11-22T12:19:53.021Z,96531.97
2022-11-22T12:25:32.932Z,96541.47
2022-11-22T12:30:25.187Z,96540.72
2022-11-22T12:35:21.391Z,96530.50
2022-11-22T12:40:26.907Z,96545.09
2022-11-22T12:45:32.845Z,96557.41
2022-11-22T12:50:35.719Z,96554.25
2022-11-22T12:55:31.551Z,96555.03
2022-11-22T13:00:26.472Z,96555.31
2022-11-22T13:05:26.851Z,96552.63
2022-11-22T13:10:50.583Z,96555.91
2022-11-22T13:15:44.818Z,96565.13
2022-11-22T13:20:44.485Z,96567.88
2022-11-22T13:25:45.553Z,96583.38
2022-11-22T13:30:39.651Z,96583.66
2022-11-22T13:35:32.629Z,96590.72
2022-11-22T13:40:42.088Z,96584.81
2022-11-22T13:45:53.306Z,96588.09
2022-11-22T13:50:51.101Z,96579.22
2022-11-22T13:55:42.917Z,96593.59
2022-11-22T14:00:39.272Z,96589.75
2022-11-22T14:05:42.021Z,96597.06
2022-11-22T14:11:02.121Z,96600.56
2022-11-22T14:16:06.942Z,96608.47
2022-11-22T14:21:10.021Z,96614.94
2022-11-22T14:26:23.472Z,96610.41
2022-11-22T14:31:25.366Z,96619.06
2022-11-22T14:36:17.094Z,96611.81
2022-11-22T14:41:26.975Z,96614.28
2022-11-22T14:46:51.035Z,96625.41
2022-11-22T14:51:34.786Z,96614.88
2022-11-22T14:56:34.191Z,96610.81
2022-11-22T15:01:47.959Z,96619.22
2022-11-22T15:09:12.523Z,96624.91
2022-11-22T15:12:45.469Z,96618.72
2022-11-22T15:59:43.413Z,96661.69
2022-11-22T16:04:36.345Z,96653.06
2022-11-22T16:09:34.058Z,96672.81
2022-11-22T16:14:44.766Z,96669.31
2022-11-22T16:19:36.482Z,96672.03
2022-11-22T16:24:29.685Z,96659.88
2022-11-22T16:29:35.562Z,96668.50
2022-11-22T16:34:27.294Z,96664.50
2022-11-22T16:39:19.060Z,96665.06
2022-11-22T16:44:13.659Z,96665.06
2022-11-22T16:49:19.606Z,96675.34
2022-11-22T16:54:14.639Z,96685.06
2022-11-22T16:59:12.229Z,96690.22
2022-11-22T17:04:04.907Z,96682.16
2022-11-22T17:08:58.828Z,96694.59
2022-11-22T17:13:51.064Z,96703.47
2022-11-22T17:18:42.800Z,96704.31
2022-11-22T17:23:37.157Z,96731.03
2022-11-22T17:28:29.005Z,96721.06
2022-11-22T17:33:20.782Z,96710.28
2022-11-22T17:38:12.511Z,96711.38
2022-11-22T17:43:04.093Z,96715.16
2022-11-22T17:47:55.978Z,96725.69
2022-11-22T17:52:47.779Z,96721.09
2022-11-22T17:57:41.355Z,96715.72
2022-11-22T18:02:34.156Z,96735.97
2022-11-22T18:07:28.701Z,96737.88
2022-11-22T18:12:20.386Z,96740.88
2022-11-22T18:17:12.067Z,96750.56
2022-11-22T18:22:03.748Z,96740.59
2022-11-22T18:26:55.421Z,96746.00
2022-11-22T18:31:52.082Z,96750.31
2022-11-22T18:37:02.488Z,96757.06
2022-11-22T18:41:55.201Z,96770.56
2022-11-22T18:46:47.442Z,96773.25
2022-11-22T18:51:39.229Z,96762.44
2022-11-22T18:56:30.977Z,96759.22
2022-11-22T19:01:24.028Z,96761.38
2022-11-22T19:06:19.452Z,96764.88
2022-11-22T19:11:11.571Z,96767.03
2022-11-22T19:16:09.379Z,96775.69
2022-11-22T19:21:05.728Z,96764.09
2022-11-22T19:25:57.682Z,96756.81
2022-11-22T19:30:49.372Z,96756.28
2022-11-22T19:35:41.067Z,96747.09
2022-11-22T19:40:32.832Z,96744.13
2022-11-22T19:45:24.502Z,96730.63
2022-11-22T19:50:16.528Z,96731.72
2022-11-22T19:55:08.509Z,96725.75
2022-11-22T20:00:00.584Z,96725.47
2022-11-22T20:04:52.209Z,96721.38
2022-11-22T20:09:43.900Z,96723.50
2022-11-22T20:14:35.525Z,96721.84
2022-11-22T20:19:32.675Z,96717.78
2022-11-22T20:24:27.600Z,96712.91
2022-11-22T20:29:22.813Z,96715.81
2022-11-22T20:34:15.891Z,96712.53
2022-11-22T20:39:28.296Z,96717.34
2022-11-22T20:44:25.671Z,96724.31
2022-11-22T20:49:17.447Z,96728.06
2022-11-22T20:54:09.620Z,96722.63
2022-11-22T20:59:01.395Z,96734.72
2022-11-22T21:03:54.592Z,96729.03
2022-11-22T21:08:46.472Z,96733.63
2022-11-22T21:13:38.751Z,96733.09
2022-11-22T21:18:30.680Z,96746.53
2022-11-22T21:23:22.270Z,96739.78
2022-11-22T21:28:13.981Z,96738.72
2022-11-22T21:33:05.755Z,96740.31
2022-11-22T21:37:57.386Z,96731.19
2022-11-22T21:42:49.004Z,96726.34
2022-11-22T21:47:40.745Z,96722.28
2022-11-22T21:52:32.311Z,96729.81
2022-11-22T21:57:23.966Z,96730.59
2022-11-22T22:02:16.185Z,96725.22
2022-11-22T22:07:23.594Z,96731.16
2022-11-22T22:12:19.525Z,96726.59
2022-11-22T22:17:11.070Z,96724.16
2022-11-22T22:22:02.748Z,96730.91
2022-11-22T22:26:54.466Z,96720.97
2022-11-22T22:31:46.139Z,96723.38
2022-11-22T22:36:37.834Z,96705.38
2022-11-22T22:41:30.478Z,96712.09
2022-11-22T22:46:24.963Z,96713.94
2022-11-22T22:51:21.971Z,96718.75
2022-11-22T22:56:15.111Z,96718.44
2022-11-22T23:01:17.396Z,96711.13
2022-11-22T23:06:11.998Z,96717.50
2022-11-22T23:11:09.125Z,96715.59
2022-11-22T23:16:01.155Z,96700.00
2022-11-22T23:20:57.759Z,96697.53
2022-11-22T23:25:49.348Z,96694.50
2022-11-22T23:30:41.046Z,96694.22
2022-11-22T23:35:34.754Z,96685.28
2022-11-22T23:40:26.511Z,96681.50
2022-11-22T23:45:18.328Z,96673.94
2022-11-22T23:50:10.161Z,96672.28
2022-11-22T23:55:01.929Z,96671.19
2022-11-22T23:59:53.542Z,96674.38
